Dane County Regional Truax Field
KMSN : now visible

Aeroporto :











RITROVATECI SU...

 
LOGIN :

Iscrizione | Disclaimer

   EN    FR    IT 

 









Sommario :    VFR   VFR Marginale   IFR   IFR Intensivo   IFR Molto Intensivo
Visibilità : 
Base nubi : 
>= 8 km
>= 3000ft
5 / 8 km
1000 / 3000 ft
1500m / 5 km
500 / 1000 ft
800 / 1500m
200 / 500 ft
< 800m
< 200 ft
Simboli :   Temporali  Nebbia  Neve Forte  Precipitazioni Forti  Vento > 20 kt






- Altitudine del aeroporto : 887 ft
- Codice IATA : MSN


KMSN - Dane County Regional Truax Field

ULTIMO METAR :
  • 211553Z 24009G18KT 10SM CLR M06/M13 A3045 RMK AO2 SLP331 T10611133

METARs OBSOLETI :
  • 211453Z 21007G15KT 10SM CLR M09/M15 A3046 RMK AO2 SLP336 T10891150 56008
  • 211353Z 21007KT 10SM CLR M11/M17 A3047 RMK AO2 SLP338 T11111167

TAF KMSN
Valido dal 21 a 12 ore il 22 a 12 ore UTC


211120Z 2112/2212 22005KT P6SM SKC
FM211500 22010G17KT P6SM SKC
FM211800 22013G21KT P6SM SKC
FM220000 22013G20KT P6SM SKC WS020/24050KT
FM220900 23008KT P6SM FEW250



MetMap, La meteo Aeronautica in un colpo d'occhio ! - Copyright ORBIFLY Dicembre 2007 - Disclaimer

ORBIFLY MET'MAP TEAM :

Programmazione e sviluppo : Alexandra Zaïnal
Concezione : Baudouin d'Aumeries
Aiuto per la programmazione : Marc-Olivier Méhu
Supporto tecnico e logistico : Manuel Goepfert
Aiuto per la traduzione : Arnaldo La Scala

Contatto : metmap@orbifly.com




FONTI E CREDITI :

   NOAA       Earth
Advisory